Union Grove, Illinois
Current Conditions -  °F | °C
As of 5:55 AM on Friday 31 Oct 2014 (Local Time) from KSQI Reporting Station
Broken Clouds Broken Clouds  
Wind Chill: 25°   Ceiling: 6500
Heat Index: 36°   Visibility: 10mi
Dew Point: 18°   Wind: 18mph
Humidity: 48%   Direction: 340°NNW
Pressure: 30.18"   Gusts: 29mph
Location:  41.8285°N, 89.9656°W
Report Text: KSQI 311055Z AUTO 34016G25KT 10SM BKN065 02/M08 A3018 RMK AO1
Loading
Personal Weather Stations






























Interactive Weather Map
Tropical Storm Tracking
New forecast layout! Learn more

10-Day Weather Forecast

Advertisements
Track Severe Weather on mobile